Time,TemperatureF,DewpointF,PressureIn,WindDirection,WindDirectionDegrees,WindSpeedMPH,WindSpeedGustMPH,Humidity,HourlyPrecipIn,Conditions,Clouds,dailyrainin,SoftwareType,DateUTC
2013-05-06 08:19:00,75.1,59.5,30.22,North,0,0.0,0.0,58,0.00,,,0.00,WUHU21623XXSP,2013-05-06 12:19:00,
2013-05-06 08:20:00,75.1,59.0,30.22,NNW,337,0.0,0.0,57,0.00,,,0.00,WUHU21623XXSP,2013-05-06 12:20:00,
2013-05-06 08:25:00,74.7,58.6,30.23,NW,315,0.0,0.0,57,0.00,,,0.00,WUHU21623XXSP,2013-05-06 12:25:00,
2013-05-06 08:30:00,74.6,58.5,30.23,NNW,337,0.0,0.0,57,0.00,,,0.00,WUHU21623XXSP,2013-05-06 12:30:00,
2013-05-06 08:35:00,74.0,58.0,30.23,NW,315,0.0,0.0,57,0.00,,,0.00,WUHU21623XXSP,2013-05-06 12:35:00,
2013-05-06 08:40:00,73.5,58.0,30.23,NW,315,0.0,0.0,58,0.00,,,0.00,WUHU21623XXSP,2013-05-06 12:40:00,
2013-05-06 08:45:00,73.8,58.3,30.23,NW,315,0.0,0.0,58,0.00,,,0.00,WUHU21623XXSP,2013-05-06 12:45:00,
2013-05-06 08:50:00,73.8,58.3,30.23,North,0,0.0,0.0,58,0.00,,,0.00,WUHU21623XXSP,2013-05-06 12:50:00,
2013-05-06 08:55:00,73.8,57.8,30.24,North,0,0.0,0.0,57,0.00,,,0.00,WUHU21623XXSP,2013-05-06 12:55:00,
2013-05-06 09:00:00,73.3,57.3,30.24,NNE,22,0.0,0.0,57,0.00,,,0.00,WUHU21623XXSP,2013-05-06 13:00:00,
2013-05-06 09:05:00,73.1,57.6,30.24,West,270,0.0,0.0,58,0.00,,,0.00,WUHU21623XXSP,2013-05-06 13:05:00,
2013-05-06 09:10:00,73.1,57.1,30.24,NNW,337,0.0,0.0,57,0.00,,,0.00,WUHU21623XXSP,2013-05-06 13:10:00,
2013-05-06 09:16:00,72.9,56.9,30.24,WNW,292,0.0,0.0,57,0.00,,,0.00,WUHU21623XXSP,2013-05-06 13:16:00,
2013-05-06 09:21:00,73.5,58.0,30.24,NNE,22,0.0,0.0,58,0.00,,,0.00,WUHU21623XXSP,2013-05-06 13:21:00,
2013-05-06 09:26:00,73.8,57.8,30.24,WNW,292,0.0,0.0,57,0.00,,,0.00,WUHU21623XXSP,2013-05-06 13:26:00,
2013-05-06 09:31:00,73.8,57.3,30.25,WNW,292,0.0,0.0,56,0.00,,,0.00,WUHU21623XXSP,2013-05-06 13:31:00,
2013-05-06 09:36:00,73.5,57.0,30.25,WNW,292,0.0,0.0,56,0.00,,,0.00,WUHU21623XXSP,2013-05-06 13:36:00,
2013-05-06 09:41:00,73.8,57.8,30.25,NW,315,0.0,0.0,57,0.00,,,0.00,WUHU21623XXSP,2013-05-06 13:41:00,
2013-05-06 09:46:00,74.0,57.5,30.25,NW,315,0.0,0.0,56,0.00,,,0.00,WUHU21623XXSP,2013-05-06 13:46:00,
2013-05-06 09:51:00,74.4,57.3,30.25,WNW,292,0.0,0.0,55,0.00,,,0.00,WUHU21623XXSP,2013-05-06 13:51:00,
2013-05-06 09:56:00,74.0,57.0,30.25,WNW,292,0.0,0.0,55,0.00,,,0.00,WUHU21623XXSP,2013-05-06 13:56:00,
2013-05-06 10:01:00,74.7,58.1,30.25,NW,315,0.0,0.0,56,0.00,,,0.00,WUHU21623XXSP,2013-05-06 14:01:00,
2013-05-06 10:06:00,75.3,58.7,30.25,NNW,337,0.0,0.0,56,0.00,,,0.00,WUHU21623XXSP,2013-05-06 14:06:00,
2013-05-06 10:11:00,75.3,57.7,30.25,NW,315,0.0,0.0,54,0.00,,,0.00,WUHU21623XXSP,2013-05-06 14:11:00,
2013-05-06 10:16:00,75.8,57.6,30.25,North,0,0.0,0.0,53,0.00,,,0.00,WUHU21623XXSP,2013-05-06 14:16:00,
2013-05-06 10:21:00,75.6,57.9,30.25,NNE,22,0.0,0.0,54,0.00,,,0.00,WUHU21623XXSP,2013-05-06 14:21:00,
2013-05-06 10:26:00,74.7,57.1,30.26,North,0,0.0,0.0,54,0.00,,,0.00,WUHU21623XXSP,2013-05-06 14:26:00,
2013-05-06 10:31:00,74.9,57.3,30.26,NNW,337,0.0,0.0,54,0.00,,,0.00,WUHU21623XXSP,2013-05-06 14:31:00,
2013-05-06 10:36:00,74.4,56.8,30.26,NNE,22,0.0,0.0,54,0.00,,,0.00,WUHU21623XXSP,2013-05-06 14:36:00,
2013-05-06 10:41:00,74.9,57.8,30.26,NW,315,0.0,0.0,55,0.00,,,0.00,WUHU21623XXSP,2013-05-06 14:41:00,
2013-05-06 10:46:00,75.6,57.9,30.26,NW,315,0.0,0.0,54,0.00,,,0.00,WUHU21623XXSP,2013-05-06 14:46:00,
2013-05-06 10:51:00,76.0,57.8,30.27,WNW,292,0.0,0.0,53,0.00,,,0.00,WUHU21623XXSP,2013-05-06 14:51:00,
2013-05-06 10:57:00,76.2,58.0,30.26,WNW,292,0.0,0.0,53,0.00,,,0.00,WUHU21623XXSP,2013-05-06 14:57:00,
2013-05-06 11:02:00,76.5,57.7,30.27,NNE,22,0.0,0.0,52,0.00,,,0.00,WUHU21623XXSP,2013-05-06 15:02:00,
2013-05-06 11:07:00,76.5,57.7,30.27,NNW,337,0.0,0.0,52,0.00,,,0.00,WUHU21623XXSP,2013-05-06 15:07:00,
2013-05-06 11:12:00,76.5,57.7,30.27,WNW,292,0.0,0.0,52,0.00,,,0.00,WUHU21623XXSP,2013-05-06 15:12:00,
2013-05-06 11:17:00,76.7,57.9,30.27,North,0,0.0,0.0,52,0.00,,,0.00,WUHU21623XXSP,2013-05-06 15:17:00,
2013-05-06 11:22:00,76.5,57.7,30.27,WNW,292,0.0,0.0,52,0.00,,,0.00,WUHU21623XXSP,2013-05-06 15:22:00,
2013-05-06 11:27:00,77.1,58.2,30.27,West,270,0.0,0.0,52,0.00,,,0.00,WUHU21623XXSP,2013-05-06 15:27:00,
2013-05-06 11:32:00,76.7,57.9,30.27,West,270,0.0,0.0,52,0.00,,,0.00,WUHU21623XXSP,2013-05-06 15:32:00,
2013-05-06 11:37:00,77.4,58.0,30.27,NE,45,0.0,0.0,51,0.00,,,0.00,WUHU21623XXSP,2013-05-06 15:37:00,
2013-05-06 11:42:00,76.2,57.4,30.27,WNW,292,0.0,0.0,52,0.00,,,0.00,WUHU21623XXSP,2013-05-06 15:42:00,
2013-05-06 11:47:00,75.8,57.6,30.27,NNW,337,0.0,0.0,53,0.00,,,0.00,WUHU21623XXSP,2013-05-06 15:47:00,
2013-05-06 11:52:00,76.5,57.7,30.27,WNW,292,0.0,0.0,52,0.00,,,0.00,WUHU21623XXSP,2013-05-06 15:52:00,
2013-05-06 11:57:00,77.1,58.2,30.27,West,270,0.0,0.0,52,0.00,,,0.00,WUHU21623XXSP,2013-05-06 15:57:00,
2013-05-06 12:02:00,76.7,57.3,30.27,West,270,0.0,0.0,51,0.00,,,0.00,WUHU21623XXSP,2013-05-06 16:02:00,
2013-05-06 12:07:00,76.5,57.1,30.27,WNW,292,0.0,0.0,51,0.00,,,0.00,WUHU21623XXSP,2013-05-06 16:07:00,
2013-05-06 12:12:00,76.5,57.7,30.27,NNW,337,0.0,0.0,52,0.00,,,0.00,WUHU21623XXSP,2013-05-06 16:12:00,
2013-05-06 12:21:00,77.4,58.0,30.27,NW,315,0.0,0.0,51,0.00,,,0.00,WUHU21623XXSP,2013-05-06 16:21:00,
2013-05-06 12:26:00,77.6,57.6,30.27,NNW,337,0.0,0.0,50,0.00,,,0.00,WUHU21623XXSP,2013-05-06 16:26:00,
2013-05-06 12:31:00,76.7,57.3,30.26,West,270,0.0,0.0,51,0.00,,,0.00,WUHU21623XXSP,2013-05-06 16:31:00,
2013-05-06 12:36:00,76.7,57.3,30.26,WSW,247,0.0,0.0,51,0.00,,,0.00,WUHU21623XXSP,2013-05-06 16:36:00,
2013-05-06 12:41:00,77.1,57.7,30.26,NW,315,0.0,0.0,51,0.00,,,0.00,WUHU21623XXSP,2013-05-06 16:41:00,
2013-05-06 12:46:00,77.1,57.7,30.27,WNW,292,0.0,0.0,51,0.00,,,0.00,WUHU21623XXSP,2013-05-06 16:46:00,
2013-05-06 13:44:00,76.4,56.5,30.25,NW,315,0.0,0.0,50,0.00,,,0.00,WUHU21623XXSP,2013-05-06 17:44:00,
2013-05-06 13:49:00,76.2,56.3,30.25,NW,315,0.0,0.0,50,0.00,,,0.00,WUHU21623XXSP,2013-05-06 17:49:00,
2013-05-06 13:56:00,76.2,56.3,30.27,NNE,22,0.0,0.0,50,0.00,,,0.00,WUHU21623XXSP,2013-05-06 17:56:00,
2013-05-06 14:01:00,76.0,56.1,30.26,NE,45,0.0,0.0,50,0.00,,,0.00,WUHU21623XXSP,2013-05-06 18:01:00,